Time;durP1;ratioP1;P1;durP2;ratioP2;P2;SDS_P1;SDS_P2;PMS_P1;PMS_P2;Temp;Humidity;BMP_temperature;BMP_pressure;BME280_temperature;BME280_humidity;BME280_pressure;Samples;Min_cycle;Max_cycle;Signal;HPM_P1;HPM_P2
2022/10/21 00:02:04;;;;;;;;;;;;;;;13.19;100.00;96302.91;5093704;28;19959;-72
2022/10/21 00:04:30;;;;;;;;;;;;;;;13.19;100.00;96294.22;5093956;28;19958;-71
2022/10/21 00:06:56;;;;;;;;;;;;;;;13.16;100.00;96290.19;5093489;28;19971;-71
2022/10/21 00:09:22;;;;;;;;;;;;;;;13.13;100.00;96287.25;5093602;28;19987;-72
2022/10/21 00:11:48;;;;;;;;;;;;;;;13.11;100.00;96291.97;5093656;28;20448;-72
2022/10/21 00:14:14;;;;;;;;;;;;;;;13.10;100.00;96274.56;5093467;28;19998;-72
2022/10/21 00:16:40;;;;;;;;;;;;;;;13.05;100.00;96277.13;5093702;28;19958;-72
2022/10/21 00:19:06;;;;;;;;;;;;;;;13.02;100.00;96275.75;5093245;28;20064;-72
2022/10/21 00:21:32;;;;;;;;;;;;;;;13.00;100.00;96278.63;5093787;28;20056;-72
2022/10/21 00:23:57;;;;;;;;;;;;;;;12.97;100.00;96273.03;5093713;28;19999;-72
2022/10/21 00:26:23;;;;;;;;;;;;;;;12.95;100.00;96275.88;5093723;28;20503;-72
2022/10/21 00:28:53;;;;;;;;;;;;;;;12.93;100.00;96277.16;5093631;28;19957;-72
2022/10/21 00:31:19;;;;;;;;;;;;;;;12.88;100.00;96282.34;5093532;28;19951;-72
2022/10/21 00:33:45;;;;;;;;;;;;;;;12.83;100.00;96277.81;5092869;28;20380;-72
2022/10/21 00:36:14;;;;;;;;;;;;;;;12.83;100.00;96272.53;5092607;28;20112;-72
2022/10/21 00:38:41;;;;;;;;;;;;;;;12.84;100.00;96270.69;5093662;28;20401;-72
2022/10/21 00:41:07;;;;;;;;;;;;;;;12.85;100.00;96280.19;5093197;28;19956;-71
2022/10/21 00:43:51;;;;;;;;;;;;;;;12.88;100.00;96269.97;5093409;28;20327;-72
2022/10/21 00:46:17;;;;;;;;;;;;;;;12.88;100.00;96283.16;5093334;28;19964;-72
2022/10/21 00:48:47;;;;;;;;;;;;;;;12.91;100.00;96281.88;5093260;28;20339;-72
2022/10/21 00:51:15;;;;;;;;;;;;;;;12.91;100.00;96289.75;5091845;28;19963;-73
2022/10/21 00:53:42;;;;;;;;;;;;;;;12.89;100.00;96276.03;5093368;28;19954;-72
2022/10/21 00:56:11;;;;;;;;;;;;;;;12.86;100.00;96274.69;5091822;28;19952;-72
2022/10/21 00:58:37;;;;;;;;;;;;;;;12.86;100.00;96261.53;5077524;28;19950;-72
2022/10/21 01:01:05;;;;;;;;;;;;;;;12.87;100.00;96267.56;5096218;28;20313;-72
2022/10/21 01:03:31;;;;;;;;;;;;;;;12.85;100.00;96267.84;5096995;28;19953;-72
2022/10/21 01:06:09;;;;;;;;;;;;;;;12.84;100.00;96254.91;5097089;28;19972;-72
2022/10/21 01:08:35;;;;;;;;;;;;;;;12.84;100.00;96262.81;5096578;28;19952;-72
2022/10/21 01:11:02;;;;;;;;;;;;;;;12.82;100.00;96257.78;5096594;28;20299;-72
2022/10/21 01:13:46;;;;;;;;;;;;;;;12.84;100.00;96257.53;5096707;28;19960;-72
2022/10/21 01:16:33;;;;;;;;;;;;;;;12.83;100.00;96248.84;5096652;28;19958;-73
2022/10/21 01:18:59;;;;;;;;;;;;;;;12.85;100.00;96254.69;5096702;28;19994;-72
2022/10/21 01:21:46;;;;;;;;;;;;;;;12.84;100.00;96252.28;5096689;28;19965;-72
2022/10/21 01:24:44;;;;;;;;;;;;;;;12.85;100.00;96248.59;5088079;28;19954;-72
2022/10/21 01:27:10;;;;;;;;;;;;;;;12.86;100.00;96255.47;5056136;28;19967;-72
2022/10/21 01:30:03;;;;;;;;;;;;;;;12.86;100.00;96252.84;5096513;28;20461;-72
2022/10/21 01:32:47;;;;;;;;;;;;;;;12.86;100.00;96251.00;5058223;28;19950;-72
2022/10/21 01:35:25;;;;;;;;;;;;;;;12.86;100.00;96258.91;5096077;28;19962;-72
2022/10/21 01:37:51;;;;;;;;;;;;;;;12.87;100.00;96255.25;5096535;28;19950;-72
2022/10/21 01:40:20;;;;;;;;;;;;;;;12.88;100.00;96271.81;5095964;28;20307;-72
2022/10/21 01:42:51;;;;;;;;;;;;;;;12.89;100.00;96282.13;5096192;28;19953;-72
2022/10/21 01:45:23;;;;;;;;;;;;;;;12.92;100.00;96297.44;5096223;28;20018;-72
2022/10/21 01:47:52;;;;;;;;;;;;;;;12.94;100.00;96284.84;5096013;28;19974;-71
2022/10/21 01:50:23;;;;;;;;;;;;;;;12.95;100.00;96278.53;5095883;28;19948;-70
2022/10/21 01:52:51;;;;;;;;;;;;;;;12.94;100.00;96278.78;5095346;28;19944;-69
2022/10/21 01:55:19;;;;;;;;;;;;;;;12.92;100.00;96288.75;5095958;28;19958;-69
2022/10/21 01:57:50;;;;;;;;;;;;;;;12.88;100.00;96269.19;5094581;28;19955;-69
2022/10/21 02:00:16;;;;;;;;;;;;;;;12.87;100.00;96259.69;5096061;28;19949;-69
2022/10/21 02:02:45;;;;;;;;;;;;;;;12.87;100.00;96246.53;5095683;28;20000;-70
2022/10/21 02:05:27;;;;;;;;;;;;;;;12.87;100.00;96242.09;5095623;28;20414;-70
2022/10/21 02:07:54;;;;;;;;;;;;;;;12.87;100.00;96218.41;5095456;28;20435;-70
2022/10/21 02:10:22;;;;;;;;;;;;;;;12.89;100.00;96207.63;5094672;28;19954;-70
2022/10/21 02:12:49;;;;;;;;;;;;;;;12.89;100.00;96205.78;5095493;28;20299;-70
2022/10/21 02:15:15;;;;;;;;;;;;;;;12.91;100.00;96200.28;5095568;28;19962;-70
2022/10/21 02:17:43;;;;;;;;;;;;;;;12.92;100.00;96199.25;5095245;28;20019;-70
2022/10/21 02:20:10;;;;;;;;;;;;;;;12.93;100.00;96195.56;5095809;28;19975;-70
2022/10/21 02:22:36;;;;;;;;;;;;;;;12.94;100.00;96199.81;5095311;28;20311;-70
2022/10/21 02:25:22;;;;;;;;;;;;;;;12.94;100.00;96179.53;5094553;28;19962;-70
2022/10/21 02:27:49;;;;;;;;;;;;;;;12.95;100.00;96189.03;5094775;28;19971;-70
2022/10/21 02:30:15;;;;;;;;;;;;;;;12.95;100.00;96191.66;5095327;28;19955;-70
2022/10/21 02:32:47;;;;;;;;;;;;;;;12.98;100.00;96195.66;5095030;28;19953;-70
2022/10/21 02:35:12;;;;;;;;;;;;;;;12.98;100.00;96180.66;5095446;28;20432;-70
2022/10/21 02:37:47;;;;;;;;;;;;;;;12.96;100.00;96171.41;5095306;28;19989;-70
2022/10/21 02:40:16;;;;;;;;;;;;;;;12.96;100.00;96174.06;5094982;28;19958;-70
2022/10/21 02:42:45;;;;;;;;;;;;;;;12.96;100.00;96161.69;5094939;28;19952;-70
2022/10/21 02:45:11;;;;;;;;;;;;;;;12.96;100.00;96159.06;5094190;28;20406;-70
2022/10/21 02:47:37;;;;;;;;;;;;;;;13.00;100.00;96157.53;5094826;28;19967;-70
2022/10/21 02:50:04;;;;;;;;;;;;;;;13.00;100.00;96157.53;5094864;28;19960;-70
2022/10/21 02:52:29;;;;;;;;;;;;;;;13.03;100.00;96151.00;5094543;28;19955;-70
2022/10/21 02:54:55;;;;;;;;;;;;;;;13.04;100.00;96149.16;5094482;28;19987;-70
2022/10/21 02:57:21;;;;;;;;;;;;;;;13.06;100.00;96144.44;5095236;28;20387;-70
2022/10/21 02:59:47;;;;;;;;;;;;;;;13.07;100.00;96146.84;5093378;28;19991;-71
2022/10/21 03:02:13;;;;;;;;;;;;;;;13.07;100.00;96149.47;5095171;28;20012;-71
2022/10/21 03:04:39;;;;;;;;;;;;;;;13.06;100.00;96152.34;5094405;28;19957;-71
2022/10/21 03:07:05;;;;;;;;;;;;;;;13.03;100.00;96137.03;5093279;28;19967;-71
2022/10/21 03:09:31;;;;;;;;;;;;;;;13.01;100.00;96145.16;5094453;28;19962;-71
2022/10/21 03:11:57;;;;;;;;;;;;;;;12.99;100.00;96157.78;5092980;28;19954;-71
2022/10/21 03:14:22;;;;;;;;;;;;;;;12.94;100.00;96158.50;5094363;28;19969;-71
2022/10/21 03:16:48;;;;;;;;;;;;;;;12.91;100.00;96153.69;5094561;28;19957;-71
2022/10/21 03:19:14;;;;;;;;;;;;;;;12.88;100.00;96150.75;5093869;28;20036;-71
2022/10/21 03:21:40;;;;;;;;;;;;;;;12.85;100.00;96157.31;5093307;28;20052;-71
2022/10/21 03:24:06;;;;;;;;;;;;;;;12.86;100.00;96166.00;5094629;28;20401;-71
2022/10/21 03:26:32;;;;;;;;;;;;;;;12.84;100.00;96152.28;5094198;28;20064;-71
2022/10/21 03:28:58;;;;;;;;;;;;;;;12.83;100.00;96146.22;5094539;28;19998;-71
2022/10/21 03:31:23;;;;;;;;;;;;;;;12.81;100.00;96140.41;5094334;28;20475;-71
2022/10/21 03:33:49;;;;;;;;;;;;;;;12.77;100.00;96137.44;5093408;28;19985;-71
2022/10/21 03:36:15;;;;;;;;;;;;;;;12.75;100.00;96128.19;5094217;28;20304;-71
2022/10/21 03:38:41;;;;;;;;;;;;;;;12.73;100.00;96131.06;5093769;28;19970;-71
2022/10/21 03:41:07;;;;;;;;;;;;;;;12.74;100.00;96126.59;5094248;28;19961;-71
2022/10/21 03:43:33;;;;;;;;;;;;;;;12.72;100.00;96129.44;5093985;28;19989;-70
2022/10/21 03:45:59;;;;;;;;;;;;;;;12.73;100.00;96131.06;5093709;28;20003;-70
2022/10/21 03:48:25;;;;;;;;;;;;;;;12.74;100.00;96124.75;5094433;28;20007;-70
2022/10/21 03:50:51;;;;;;;;;;;;;;;12.76;100.00;96130.56;5093687;28;20301;-71
2022/10/21 03:53:16;;;;;;;;;;;;;;;12.77;100.00;96132.19;5094173;28;19966;-70
2022/10/21 03:55:42;;;;;;;;;;;;;;;12.80;100.00;96130.91;5093843;28;20003;-70
2022/10/21 03:58:08;;;;;;;;;;;;;;;12.79;100.00;96129.31;5093825;28;19977;-70
2022/10/21 04:00:34;;;;;;;;;;;;;;;12.81;100.00;96127.25;5093681;28;20449;-70
2022/10/21 04:03:00;;;;;;;;;;;;;;;12.80;100.00;96108.00;5093951;28;19961;-71
2022/10/21 04:05:26;;;;;;;;;;;;;;;12.79;100.00;96113.53;5093306;28;19960;-71
2022/10/21 04:07:52;;;;;;;;;;;;;;;12.78;100.00;96110.06;5093971;28;20017;-71
2022/10/21 04:10:17;;;;;;;;;;;;;;;12.78;100.00;96107.44;5093511;28;19945;-71
2022/10/21 04:12:43;;;;;;;;;;;;;;;12.78;100.00;96106.66;5093792;28;20438;-71
2022/10/21 04:15:10;;;;;;;;;;;;;;;12.77;100.00;96102.44;5093646;28;19955;-71
2022/10/21 04:17:35;;;;;;;;;;;;;;;12.76;100.00;96104.25;5093397;28;19961;-71
2022/10/21 04:20:01;;;;;;;;;;;;;;;12.76;100.00;96111.34;5093463;28;20362;-71
2022/10/21 04:22:27;;;;;;;;;;;;;;;12.74;100.00;96102.91;5093536;28;19953;-71
2022/10/21 04:24:53;;;;;;;;;;;;;;;12.76;100.00;96114.78;5092232;28;19963;-71
2022/10/21 04:27:19;;;;;;;;;;;;;;;12.77;100.00;96110.34;5093639;28;19979;-71
2022/10/21 04:29:45;;;;;;;;;;;;;;;12.76;100.00;96103.47;5093565;28;19956;-71
2022/10/21 04:32:11;;;;;;;;;;;;;;;12.78;100.00;96101.38;5093521;28;19999;-71
2022/10/21 04:34:37;;;;;;;;;;;;;;;12.78;100.00;96106.66;5095645;28;20047;-71
2022/10/21 04:37:03;;;;;;;;;;;;;;;12.79;100.00;96098.53;5097286;28;20087;-71
2022/10/21 04:39:28;;;;;;;;;;;;;;;12.78;100.00;96089.03;5097306;28;19988;-70
2022/10/21 04:41:55;;;;;;;;;;;;;;;12.78;100.00;96089.03;5097549;28;20009;-70
2022/10/21 04:44:21;;;;;;;;;;;;;;;12.80;100.00;96097.47;5097035;28;19968;-70
2022/10/21 04:46:47;;;;;;;;;;;;;;;12.81;100.00;96090.41;5097171;28;19965;-70
2022/10/21 04:49:13;;;;;;;;;;;;;;;12.80;100.00;96086.16;5096830;28;20047;-70
2022/10/21 04:51:39;;;;;;;;;;;;;;;12.81;100.00;96082.50;5096448;28;19968;-70
2022/10/21 04:54:04;;;;;;;;;;;;;;;12.81;100.00;96087.78;5096923;28;20421;-70
2022/10/21 04:56:30;;;;;;;;;;;;;;;12.82;100.00;96097.25;5096921;28;19955;-70
2022/10/21 04:58:56;;;;;;;;;;;;;;;12.84;100.00;96099.66;5097205;28;19958;-70
2022/10/21 05:01:22;;;;;;;;;;;;;;;12.85;100.00;96101.22;5097144;28;20015;-70
2022/10/21 05:03:48;;;;;;;;;;;;;;;12.85;100.00;96107.31;5096630;28;19957;-70
2022/10/21 05:06:14;;;;;;;;;;;;;;;12.87;100.00;96107.03;5096789;28;20427;-70
2022/10/21 05:08:40;;;;;;;;;;;;;;;12.88;100.00;96112.06;5096806;28;19952;-70
2022/10/21 05:11:06;;;;;;;;;;;;;;;12.89;100.00;96104.97;5096538;28;19962;-70
2022/10/21 05:13:32;;;;;;;;;;;;;;;12.92;100.00;96102.66;5096938;28;20049;-70
2022/10/21 05:15:59;;;;;;;;;;;;;;;12.93;100.00;96103.47;5097003;28;19969;-70
2022/10/21 05:18:25;;;;;;;;;;;;;;;12.94;100.00;96111.13;5096453;28;19972;-69
2022/10/21 05:20:52;;;;;;;;;;;;;;;12.94;100.00;96105.06;5096988;28;19959;-70
2022/10/21 05:23:18;;;;;;;;;;;;;;;12.90;100.00;96103.94;5095366;28;19947;-69
2022/10/21 05:25:44;;;;;;;;;;;;;;;12.88;100.00;96088.41;5096989;28;20333;-70
2022/10/21 05:28:10;;;;;;;;;;;;;;;12.88;100.00;96088.41;5096292;28;19975;-70
2022/10/21 05:30:36;;;;;;;;;;;;;;;12.90;100.00;96082.91;5096475;28;19954;-70
2022/10/21 05:33:02;;;;;;;;;;;;;;;12.91;100.00;96079.22;5096136;28;19966;-70
2022/10/21 05:35:28;;;;;;;;;;;;;;;12.92;100.00;96071.09;5096335;28;19959;-70
2022/10/21 05:37:54;;;;;;;;;;;;;;;12.96;100.00;96068.78;5096256;28;19958;-70
2022/10/21 05:40:20;;;;;;;;;;;;;;;12.97;100.00;96065.09;5096227;28;19959;-70
2022/10/21 05:42:46;;;;;;;;;;;;;;;12.98;100.00;96050.91;5096172;28;20399;-71
2022/10/21 05:45:12;;;;;;;;;;;;;;;13.00;100.00;96051.47;5095087;28;19965;-70
2022/10/21 05:47:41;;;;;;;;;;;;;;;13.00;100.00;96049.63;5095811;28;19967;-70
2022/10/21 05:50:08;;;;;;;;;;;;;;;13.02;100.00;96038.03;5096163;28;19954;-70
2022/10/21 05:52:34;;;;;;;;;;;;;;;13.00;100.00;96020.66;5096134;28;19954;-70
2022/10/21 05:54:59;;;;;;;;;;;;;;;13.02;100.00;96023.06;5095890;28;20476;-70
2022/10/21 05:57:25;;;;;;;;;;;;;;;13.03;100.00;96032.53;5095822;28;20070;-69
2022/10/21 05:59:51;;;;;;;;;;;;;;;13.04;100.00;96044.66;5095729;28;19951;-70
2022/10/21 06:02:17;;;;;;;;;;;;;;;13.04;100.00;96043.84;5095845;28;20011;-70
2022/10/21 06:04:43;;;;;;;;;;;;;;;13.05;100.00;96037.56;5095565;28;19957;-70
2022/10/21 06:07:09;;;;;;;;;;;;;;;13.06;100.00;96039.16;5094458;28;20023;-70
2022/10/21 06:09:36;;;;;;;;;;;;;;;13.07;100.00;96044.16;5095419;28;19950;-70
2022/10/21 06:12:02;;;;;;;;;;;;;;;13.08;100.00;96045.78;5095504;28;19962;-70
2022/10/21 06:14:28;;;;;;;;;;;;;;;13.08;100.00;96037.88;5095487;28;19968;-70
2022/10/21 06:16:54;;;;;;;;;;;;;;;13.10;100.00;96043.69;5095228;28;20324;-70
2022/10/21 06:19:20;;;;;;;;;;;;;;;13.11;100.00;96055.81;5095374;28;19978;-70
2022/10/21 06:21:46;;;;;;;;;;;;;;;13.12;100.00;96048.69;5095458;28;20004;-69
2022/10/21 06:24:12;;;;;;;;;;;;;;;13.13;100.00;96052.94;5095078;28;19959;-69
2022/10/21 06:26:38;;;;;;;;;;;;;;;13.15;100.00;96049.03;5095373;28;19954;-70
2022/10/21 06:29:04;;;;;;;;;;;;;;;13.16;100.00;96044.53;5095243;28;19953;-70
2022/10/21 06:31:30;;;;;;;;;;;;;;;13.17;100.00;96056.69;5093768;28;19968;-70
2022/10/21 06:33:56;;;;;;;;;;;;;;;13.19;100.00;96067.78;5095889;28;20458;-70
2022/10/21 06:36:21;;;;;;;;;;;;;;;13.22;100.00;96084.91;5095317;28;20025;-70
2022/10/21 06:38:47;;;;;;;;;;;;;;;13.22;100.00;96105.97;5094963;28;20005;-70
2022/10/21 06:41:14;;;;;;;;;;;;;;;13.24;100.00;96117.06;5093647;28;19960;-70
2022/10/21 06:43:41;;;;;;;;;;;;;;;13.24;100.00;96125.75;5095067;28;19960;-70
2022/10/21 06:46:08;;;;;;;;;;;;;;;13.25;100.00;96097.56;5094694;28;19960;-70
2022/10/21 06:48:34;;;;;;;;;;;;;;;13.26;100.00;96097.34;5094979;28;19952;-70
2022/10/21 06:51:08;;;;;;;;;;;;;;;13.28;100.00;96087.38;5094704;28;19957;-70
2022/10/21 06:53:34;;;;;;;;;;;;;;;13.28;100.00;96055.75;5095133;28;20431;-70
2022/10/21 06:56:04;;;;;;;;;;;;;;;13.30;100.00;96089.78;5094661;28;19961;-70
2022/10/21 06:58:30;;;;;;;;;;;;;;;13.30;100.00;96087.16;5094287;28;19952;-70
2022/10/21 07:00:56;;;;;;;;;;;;;;;13.30;100.00;96095.84;5094724;28;19949;-70
2022/10/21 07:03:22;;;;;;;;;;;;;;;13.31;100.00;96108.00;5095007;28;19957;-72
2022/10/21 07:05:48;;;;;;;;;;;;;;;13.32;100.00;96069.28;5094455;28;20042;-72
2022/10/21 07:08:15;;;;;;;;;;;;;;;13.33;100.00;96032.16;5094623;28;20022;-70
2022/10/21 07:10:43;;;;;;;;;;;;;;;13.32;100.00;96004.22;5094424;28;19953;-70
2022/10/21 07:13:10;;;;;;;;;;;;;;;13.33;100.00;96047.16;5094308;28;20419;-70
2022/10/21 07:15:36;;;;;;;;;;;;;;;13.35;100.00;96039.81;5094836;28;19972;-70
2022/10/21 07:18:02;;;;;;;;;;;;;;;13.38;100.00;96057.78;5094046;28;20405;-70
2022/10/21 07:20:28;;;;;;;;;;;;;;;13.43;100.00;96067.56;5094318;28;19964;-70
2022/10/21 07:22:54;;;;;;;;;;;;;;;13.48;100.00;96088.69;5094050;28;19965;-70
2022/10/21 07:25:20;;;;;;;;;;;;;;;13.51;100.00;96091.63;5094108;28;19953;-70
2022/10/21 07:27:47;;;;;;;;;;;;;;;13.55;100.00;96078.78;5093040;28;20328;-70
2022/10/21 07:30:13;;;;;;;;;;;;;;;13.57;100.00;96077.47;5093966;28;19961;-70
2022/10/21 07:32:39;;;;;;;;;;;;;;;13.62;100.00;96075.94;5094481;28;19958;-70
2022/10/21 07:35:05;;;;;;;;;;;;;;;13.65;100.00;96078.09;5093812;28;19968;-70
2022/10/21 07:37:31;;;;;;;;;;;;;;;13.67;100.00;96068.09;5094134;28;20406;-71
2022/10/21 07:39:57;;;;;;;;;;;;;;;13.68;100.00;96067.06;5094209;28;19959;-71
2022/10/21 07:42:23;;;;;;;;;;;;;;;13.68;100.00;96061.78;5093816;28;19955;-71
2022/10/21 07:44:51;;;;;;;;;;;;;;;13.69;100.00;96066.00;5093870;28;19956;-71
2022/10/21 07:47:17;;;;;;;;;;;;;;;13.68;100.00;96078.41;5094113;28;19961;-70
2022/10/21 07:49:43;;;;;;;;;;;;;;;13.70;100.00;96081.59;5094116;28;19958;-70
2022/10/21 07:52:09;;;;;;;;;;;;;;;13.70;100.00;96078.16;5093909;28;19965;-70
2022/10/21 07:54:35;;;;;;;;;;;;;;;13.72;100.00;96076.06;5093669;28;19996;-70
2022/10/21 07:57:01;;;;;;;;;;;;;;;13.73;100.00;96067.13;5093360;28;19951;-70
2022/10/21 07:59:27;;;;;;;;;;;;;;;13.73;100.00;96073.19;5093724;28;19962;-70
2022/10/21 08:01:53;;;;;;;;;;;;;;;13.74;100.00;96082.69;5093519;28;19961;-70
2022/10/21 08:04:20;;;;;;;;;;;;;;;13.74;100.00;96085.31;5093633;28;19960;-70
2022/10/21 08:06:46;;;;;;;;;;;;;;;13.74;100.00;96085.31;5093960;28;20313;-70
2022/10/21 08:09:13;;;;;;;;;;;;;;;13.74;100.00;96069.50;5095086;28;20446;-70
2022/10/21 08:11:39;;;;;;;;;;;;;;;13.74;100.00;96063.44;5097767;28;19973;-70
2022/10/21 08:14:06;;;;;;;;;;;;;;;13.73;100.00;96051.31;5097910;28;19965;-70
2022/10/21 08:16:32;;;;;;;;;;;;;;;13.73;100.00;96043.41;5097009;28;20042;-70
2022/10/21 08:18:59;;;;;;;;;;;;;;;13.72;100.00;96039.19;5096266;28;19986;-70
2022/10/21 08:21:26;;;;;;;;;;;;;;;13.73;100.00;96012.59;5097619;28;19966;-70
2022/10/21 08:23:52;;;;;;;;;;;;;;;13.74;100.00;96016.81;5082191;28;19954;-71
2022/10/21 08:26:18;;;;;;;;;;;;;;;13.76;100.00;96017.34;5097607;28;19952;-70
2022/10/21 08:28:44;;;;;;;;;;;;;;;13.79;100.00;96043.19;5097363;28;19999;-70
2022/10/21 08:31:11;;;;;;;;;;;;;;;13.81;100.00;96064.03;5097387;28;19954;-70
2022/10/21 08:33:37;;;;;;;;;;;;;;;13.83;100.00;96030.31;5097697;28;19950;-70
2022/10/21 08:36:23;;;;;;;;;;;;;;;13.85;100.00;96051.97;5097234;28;19959;-71
2022/10/21 08:38:50;;;;;;;;;;;;;;;13.86;100.00;96076.47;5097045;28;19951;-71
2022/10/21 08:41:34;;;;;;;;;;;;;;;13.90;100.00;96102.09;5097502;28;19952;-70
2022/10/21 08:44:14;;;;;;;;;;;;;;;13.90;100.00;96123.19;5097614;28;19957;-71
2022/10/21 08:46:43;;;;;;;;;;;;;;;13.91;100.00;96079.97;5097352;28;19965;-71
2022/10/21 08:49:09;;;;;;;;;;;;;;;13.92;100.00;96101.84;5084343;28;19977;-70
2022/10/21 08:51:48;;;;;;;;;;;;;;;13.95;100.00;96120.59;5097147;28;19966;-70
2022/10/21 08:54:24;;;;;;;;;;;;;;;13.95;100.00;96127.72;5097099;28;20428;-70
2022/10/21 08:56:54;;;;;;;;;;;;;;;13.91;100.00;96122.16;5097454;28;20325;-71
2022/10/21 08:59:22;;;;;;;;;;;;;;;13.89;100.00;96120.81;5081614;28;19954;-70
2022/10/21 09:01:54;;;;;;;;;;;;;;;13.90;100.00;96136.38;5097499;28;19969;-70
2022/10/21 09:04:36;;;;;;;;;;;;;;;13.92;100.00;96152.75;5096825;28;19954;-71
2022/10/21 09:07:11;;;;;;;;;;;;;;;13.93;100.00;96156.97;5097266;28;19946;-70
2022/10/21 09:09:41;;;;;;;;;;;;;;;13.94;100.00;96148.03;5096826;28;19961;-70
2022/10/21 09:12:07;;;;;;;;;;;;;;;13.91;100.00;96143.22;5095994;28;19959;-70
2022/10/21 09:14:57;;;;;;;;;;;;;;;13.92;100.00;96147.47;5096721;28;19958;-70
2022/10/21 09:17:26;;;;;;;;;;;;;;;13.94;100.00;96161.22;5068175;28;19955;-70
2022/10/21 09:19:57;;;;;;;;;;;;;;;13.97;100.00;96157.28;5096285;28;19975;-70
2022/10/21 09:22:40;;;;;;;;;;;;;;;13.98;100.00;96164.13;5095544;28;20348;-71
2022/10/21 09:25:09;;;;;;;;;;;;;;;14.01;100.00;96168.94;5097014;28;19959;-70
2022/10/21 09:27:35;;;;;;;;;;;;;;;14.02;100.00;96176.56;5096482;28;19972;-70
2022/10/21 09:30:04;;;;;;;;;;;;;;;14.02;100.00;96173.13;5096196;28;19962;-70
2022/10/21 09:32:39;;;;;;;;;;;;;;;14.02;100.00;96165.22;5096298;28;19953;-70
2022/10/21 09:35:24;;;;;;;;;;;;;;;14.06;100.00;96166.34;5081591;28;19958;-71
2022/10/21 09:37:50;;;;;;;;;;;;;;;14.12;100.00;96178.53;5096489;28;19963;-71
2022/10/21 09:40:23;;;;;;;;;;;;;;;14.18;100.00;96179.41;5096200;28;19957;-71
2022/10/21 09:42:51;;;;;;;;;;;;;;;14.25;100.00;96176.56;5096247;28;20303;-71
2022/10/21 09:45:22;;;;;;;;;;;;;;;14.30;100.00;96174.78;5096083;28;19941;-71
2022/10/21 09:47:53;;;;;;;;;;;;;;;14.34;100.00;96165.34;5096106;28;20324;-71
2022/10/21 09:50:19;;;;;;;;;;;;;;;14.37;100.00;96167.47;5096156;28;19956;-70
2022/10/21 09:52:48;;;;;;;;;;;;;;;14.39;100.00;96170.66;5094901;28;19999;-71
2022/10/21 09:55:14;;;;;;;;;;;;;;;14.43;100.00;96178.09;5095925;28;20332;-71
2022/10/21 09:57:47;;;;;;;;;;;;;;;14.46;100.00;96188.13;5095920;28;19950;-71
2022/10/21 10:00:13;;;;;;;;;;;;;;;14.45;100.00;96191.78;5095757;28;19951;-71
2022/10/21 10:02:41;;;;;;;;;;;;;;;14.46;100.00;96180.22;5095667;28;19969;-71
2022/10/21 10:05:26;;;;;;;;;;;;;;;14.47;100.00;96190.53;5095769;28;19949;-71
2022/10/21 10:07:52;;;;;;;;;;;;;;;14.48;100.00;96186.81;5095816;28;19974;-71
2022/10/21 10:10:31;;;;;;;;;;;;;;;14.51;100.00;96190.81;5095415;28;19957;-71
2022/10/21 10:12:57;;;;;;;;;;;;;;;14.53;100.00;96193.97;5095685;28;19962;-71
2022/10/21 10:15:31;;;;;;;;;;;;;;;14.58;100.00;96194.09;5094753;28;19954;-71
2022/10/21 10:17:56;;;;;;;;;;;;;;;14.63;100.00;96198.59;5095862;28;19954;-71
2022/10/21 10:20:22;;;;;;;;;;;;;;;14.68;100.00;96206.56;5095282;28;19990;-71
2022/10/21 10:22:57;;;;;;;;;;;;;;;14.71;100.00;96206.88;5095498;28;19965;-71
2022/10/21 10:25:27;;;;;;;;;;;;;;;14.75;100.00;96204.53;5095743;28;19959;-71
2022/10/21 10:28:00;;;;;;;;;;;;;;;14.77;100.00;96203.22;5095154;28;19958;-71
2022/10/21 10:30:47;;;;;;;;;;;;;;;14.78;100.00;96198.75;5095519;28;19964;-71
2022/10/21 10:33:15;;;;;;;;;;;;;;;14.81;100.00;96195.63;5086078;28;19954;-71
2022/10/21 10:36:07;;;;;;;;;;;;;;;14.85;100.00;96203.84;5094969;28;19963;-71
2022/10/21 10:38:35;;;;;;;;;;;;;;;14.86;100.00;96208.06;5090447;28;19944;-71
2022/10/21 10:41:02;;;;;;;;;;;;;;;14.87;100.00;96214.94;5095174;28;19945;-71
2022/10/21 10:43:30;;;;;;;;;;;;;;;14.90;100.00;96209.16;5094189;28;19956;-71
2022/10/21 10:46:01;;;;;;;;;;;;;;;14.92;100.00;96199.13;5095151;28;20010;-71
2022/10/21 10:48:39;;;;;;;;;;;;;;;14.96;100.00;96201.03;5094812;28;19970;-71
2022/10/21 10:51:05;;;;;;;;;;;;;;;14.99;100.00;96189.97;5095241;28;19963;-71
2022/10/21 10:53:33;;;;;;;;;;;;;;;15.03;100.00;96192.88;5094700;28;19952;-71
2022/10/21 10:56:17;;;;;;;;;;;;;;;15.06;100.00;96196.88;5094731;28;19960;-71
2022/10/21 10:58:47;;;;;;;;;;;;;;;15.11;100.00;96197.69;5087448;28;19961;-71
2022/10/21 11:01:17;;;;;;;;;;;;;;;15.16;100.00;96205.69;5094128;28;19951;-71
2022/10/21 11:03:55;;;;;;;;;;;;;;;15.25;100.00;96215.78;5094854;28;19957;-72
2022/10/21 11:06:26;;;;;;;;;;;;;;;15.29;100.00;96207.09;5094759;28;19950;-71
2022/10/21 11:08:57;;;;;;;;;;;;;;;15.33;100.00;96212.66;5094891;28;19966;-71
2022/10/21 11:11:31;;;;;;;;;;;;;;;15.33;100.00;96207.38;5094570;28;19945;-71
2022/10/21 11:13:57;;;;;;;;;;;;;;;15.35;100.00;96200.81;5094513;28;19957;-71
2022/10/21 11:16:32;;;;;;;;;;;;;;;15.43;100.00;96207.44;5094423;28;20006;-72
2022/10/21 11:18:58;;;;;;;;;;;;;;;15.53;100.00;96214.66;5093956;28;19988;-72
2022/10/21 11:21:29;;;;;;;;;;;;;;;15.63;100.00;96204.94;5091224;28;19954;-74
2022/10/21 11:23:55;;;;;;;;;;;;;;;15.72;100.00;96204.47;5083342;28;19959;-72
2022/10/21 11:26:32;;;;;;;;;;;;;;;15.81;100.00;96216.97;5086003;28;19952;-72
2022/10/21 11:29:15;;;;;;;;;;;;;;;15.91;100.00;96213.56;5090955;28;19966;-72
2022/10/21 11:32:04;;;;;;;;;;;;;;;16.01;100.00;96200.38;5094654;28;20417;-72
2022/10/21 11:34:34;;;;;;;;;;;;;;;16.03;100.00;96211.50;5085852;28;19961;-72
2022/10/21 11:37:32;;;;;;;;;;;;;;;16.04;100.00;96207.00;5094178;28;19948;-72
2022/10/21 11:40:17;;;;;;;;;;;;;;;16.00;100.00;96200.63;5060135;28;19958;-72
2022/10/21 11:42:45;;;;;;;;;;;;;;;15.94;100.00;96199.84;5084286;28;19952;-71
2022/10/21 11:45:22;;;;;;;;;;;;;;;15.93;100.00;96195.59;5093805;28;20366;-72
2022/10/21 11:47:54;;;;;;;;;;;;;;;15.90;100.00;96196.13;5093966;28;19950;-72
2022/10/21 11:50:23;;;;;;;;;;;;;;;15.85;100.00;96195.28;5093700;28;20428;-72
2022/10/21 11:53:11;;;;;;;;;;;;;;;15.81;100.00;96202.94;5093959;28;19988;-72
2022/10/21 11:55:46;;;;;;;;;;;;;;;15.77;100.00;96200.03;5094143;28;19953;-72
2022/10/21 11:58:19;;;;;;;;;;;;;;;15.75;100.00;96206.63;5093855;28;19953;-72
2022/10/21 12:00:52;;;;;;;;;;;;;;;15.76;100.00;96209.00;5093741;28;19961;-72
2022/10/21 12:03:36;;;;;;;;;;;;;;;15.77;100.00;96213.25;5093788;28;19961;-72
2022/10/21 12:06:11;;;;;;;;;;;;;;;15.79;100.00;96207.66;5083157;28;19952;-72
2022/10/21 12:08:43;;;;;;;;;;;;;;;15.80;100.00;96211.94;5092861;28;19959;-72
2022/10/21 12:11:12;;;;;;;;;;;;;;;15.80;100.00;96201.34;5093494;28;19964;-72
2022/10/21 12:13:44;;;;;;;;;;;;;;;15.81;100.00;96216.16;5092416;28;19954;-72
2022/10/21 12:16:12;;;;;;;;;;;;;;;15.85;100.00;96217.22;5093775;28;20321;-72
2022/10/21 12:18:42;;;;;;;;;;;;;;;15.87;100.00;96209.03;5093528;28;19979;-72
2022/10/21 12:21:13;;;;;;;;;;;;;;;15.87;100.00;96198.47;5092312;28;20335;-73
2022/10/21 12:23:39;;;;;;;;;;;;;;;15.84;100.00;96199.78;5093943;28;19970;-73
2022/10/21 12:26:11;;;;;;;;;;;;;;;15.85;100.00;96208.50;5093411;28;19948;-73
2022/10/21 12:28:42;;;;;;;;;;;;;;;15.82;100.00;96202.69;5093589;28;19968;-73
2022/10/21 12:31:13;;;;;;;;;;;;;;;15.79;100.00;96205.84;5093567;28;19951;-73
2022/10/21 12:33:42;;;;;;;;;;;;;;;15.73;100.00;96198.16;5093535;28;20339;-72
2022/10/21 12:36:17;;;;;;;;;;;;;;;15.68;100.00;96206.00;5093280;28;19948;-73
2022/10/21 12:38:42;;;;;;;;;;;;;;;15.63;100.00;96193.56;5093443;28;19956;-73
2022/10/21 12:41:27;;;;;;;;;;;;;;;15.60;100.00;96202.81;5093646;28;19959;-72
2022/10/21 12:43:53;;;;;;;;;;;;;;;15.63;100.00;96202.28;5093602;28;19958;-72
2022/10/21 12:46:23;;;;;;;;;;;;;;;15.68;100.00;96198.06;5093415;28;19957;-73